Costa Neoclassica — ICIC — position and weather

sailwx.info

Track history (hours):
 
Tides and Currents Weather Stations Pressure Air Temp Water Temp Dewpoint Dewpoint Depression Visibility Wind Speed Wind Dir Waves Ship Positions

Costa Neoclassica

Last reported at 2017-May-29 16:30 UTC. Time now 2017-May-29 16:56 UTC.
Position N 37°56' E 023°38'.

Length 220 m; draft 7.6 m.

Type: Passenger vessel. MMSI: 247819000.

Date/timePositionNaut miles runAvg speedWind from/ knotsBaromVisibWave heightAir tempDewpointWater temp
2017-May-29 16:30N 37°56' E 023°38'0 0.0
2017-May-29 16:00N 37°56' E 023°38'0 0.0
2017-May-29 15:30N 37°56' E 023°38'0 0.0
2017-May-29 15:00N 37°56' E 023°38'0 0.0
2017-May-29 14:30N 37°56' E 023°38'0 0.0
2017-May-29 13:30N 37°56' E 023°38'0 0.0
2017-May-29 13:00N 37°56' E 023°38'0 0.0
2017-May-29 12:30N 37°56' E 023°38'0 0.0
2017-May-29 12:00N 37°56' E 023°38'0 0.0
2017-May-29 11:30N 37°56' E 023°38'0 0.0
2017-May-29 11:00N 37°56' E 023°38'0 0.1
2017-May-29 10:30N 37°56' E 023°38'2 3.9
2017-May-29 10:00N 37°55' E 023°36'714.5
2017-May-29 09:31N 37°48' E 023°41'918.7
2017-May-29 09:01N 37°40' E 023°46'918.1
2017-May-29 08:31N 37°31' E 023°46'387 9.3
2017-May-27 15:05N 41°08' E 016°52'47 3.3
2017-May-27 01:00N 40°48' E 017°48'2643.3 220 / 211012.0 19.017.519.0
2017-May-27 00:24N 40°38' E 018°19'376 7.6
2017-May-24 23:02N 37°05' E 024°57'015.3
2017-May-24 23:00N 37°06' E 024°58'715.0
2017-May-24 22:30N 37°13' E 025°01'915.1
2017-May-24 21:56N 37°20' E 025°06'614.8
2017-May-24 21:30N 37°26' E 025°09'713.9
2017-May-24 21:01N 37°28' E 025°17'2 2.6
2017-May-24 20:24N 37°28' E 025°19'0 0.0
2017-May-24 20:00N 37°28' E 025°19'0 0.0
2017-May-24 19:24N 37°28' E 025°19'0 0.0
2017-May-24 19:00N 37°28' E 025°19'0 0.0
2017-May-24 18:30N 37°28' E 025°19'0 0.0
2017-May-24 18:00N 37°28' E 025°19'0 0.0
2017-May-24 17:30N 37°28' E 025°19'0 0.0
2017-May-24 17:00N 37°28' E 025°19'0 0.0
2017-May-24 16:30N 37°28' E 025°19'0 0.0
2017-May-24 16:00N 37°28' E 025°19'0 0.0
2017-May-24 15:30N 37°28' E 025°19'0 0.0
2017-May-24 15:00N 37°28' E 025°19'0 0.0
2017-May-24 14:30N 37°28' E 025°19'0 0.0
2017-May-24 13:30N 37°28' E 025°19'0 0.0
2017-May-24 13:00N 37°28' E 025°19'0 0.0
2017-May-24 12:30N 37°28' E 025°19'0 0.0
2017-May-24 12:00N 37°28' E 025°19'0 0.0
2017-May-24 11:30N 37°28' E 025°19'0 0.0
2017-May-24 11:00N 37°28' E 025°19'0 0.0
2017-May-24 10:30N 37°28' E 025°19'0 0.0
2017-May-24 10:00N 37°28' E 025°19'0 0.0
2017-May-24 09:30N 37°28' E 025°19'0 0.0
2017-May-24 09:00N 37°28' E 025°19'0 0.0
2017-May-24 08:27N 37°28' E 025°19'0 0.0
2017-May-24 08:00N 37°28' E 025°19'0 0.0
2017-May-24 07:30N 37°28' E 025°19'0 0.0
2017-May-24 07:00N 37°28' E 025°19'0 0.0
2017-May-24 06:30N 37°28' E 025°19'0 0.0
2017-May-24 06:00N 37°28' E 025°19'0 0.0
2017-May-24 05:30N 37°28' E 025°19'0 0.0
2017-May-24 05:00N 37°28' E 025°19'0 0.0
2017-May-24 04:30N 37°28' E 025°19'0 0.0
2017-May-24 04:00N 37°28' E 025°19'0 0.0
2017-May-24 03:30N 37°28' E 025°19'0 0.0
2017-May-24 03:00N 37°28' E 025°19'0 0.0
2017-May-24 02:30N 37°28' E 025°19'0 0.0
2017-May-24 02:00N 37°28' E 025°19'0 0.0
2017-May-24 01:30N 37°28' E 025°19'0 0.0
2017-May-24 01:00N 37°28' E 025°19'0 0.0
2017-May-24 00:30N 37°28' E 025°19'0 0.0
2017-May-24 00:00N 37°28' E 025°19'0 0.0
2017-May-23 23:30N 37°28' E 025°19'0 0.0
2017-May-23 23:00N 37°28' E 025°19'0 0.0
2017-May-23 22:27N 37°28' E 025°19'0 0.0
2017-May-23 22:00N 37°28' E 025°19'0 0.0
2017-May-23 21:30N 37°28' E 025°19'0 0.0
2017-May-23 21:00N 37°28' E 025°19'0 0.0
2017-May-23 20:30N 37°28' E 025°19'0 0.0
2017-May-23 20:00N 37°28' E 025°19'1 1.1
2017-May-23 19:30N 37°28' E 025°19'0 0.4
2017-May-23 18:46N 37°27' E 025°19'0 0.1
2017-May-23 18:22N 37°27' E 025°19'0 0.1
2017-May-23 17:52N 37°27' E 025°19'0 0.0
2017-May-23 17:19N 37°27' E 025°19'0 0.0
2017-May-23 16:55N 37°27' E 025°19'0 0.0
2017-May-23 16:25N 37°27' E 025°19'0 0.1
2017-May-23 15:58N 37°27' E 025°19'0 0.0
2017-May-23 15:16N 37°27' E 025°19'0 0.1
2017-May-23 14:55N 37°27' E 025°19'0 0.0
2017-May-23 14:25N 37°27' E 025°19'0 0.0
2017-May-23 13:19N 37°27' E 025°19'310.4
2017-May-23 13:00N 37°24' E 025°18'340.4 360 / 141017.027.0 22.017.519.0
2017-May-23 12:55N 37°27' E 025°19'0 0.1
2017-May-23 12:28N 37°27' E 025°19'0 0.0
2017-May-23 11:58N 37°27' E 025°19'0 0.1
2017-May-23 11:31N 37°27' E 025°19'0 0.0
2017-May-23 10:58N 37°27' E 025°19'0 0.1
2017-May-23 10:31N 37°27' E 025°19'0 0.0
2017-May-23 09:58N 37°27' E 025°19'0 0.0
2017-May-23 09:28N 37°27' E 025°19'0 0.0
2017-May-23 08:55N 37°27' E 025°19'0 0.1
2017-May-23 08:28N 37°27' E 025°19'0 0.0
2017-May-23 07:58N 37°27' E 025°19'0 0.0
2017-May-23 07:25N 37°27' E 025°19'0 0.0
2017-May-23 06:49N 37°27' E 025°19'0 0.0
2017-May-23 06:28N 37°27' E 025°19'0 0.0
2017-May-23 05:55N 37°27' E 025°19'0 0.0
2017-May-23 05:31N 37°27' E 025°19'0 0.0
2017-May-23 05:00N 37°27' E 025°19'0 0.1
2017-May-23 04:30N 37°27' E 025°19'0 0.3
2017-May-23 04:00N 37°27' E 025°19'4 7.7
2017-May-23 03:30N 37°27' E 025°14'5 9.0
2017-May-23 03:00N 37°25' E 025°09'713.0
2017-May-23 02:30N 37°20' E 025°04'714.2
2017-May-23 02:01N 37°16' E 024°57'6012.0
2017-May-22 21:01N 37°30' E 023°44'115.3
2017-May-22 20:56N 37°31' E 023°43'715.1
2017-May-22 20:31N 37°38' E 023°43'714.7
2017-May-22 20:01N 37°44' E 023°39'714.4
2017-May-22 19:31N 37°51' E 023°37'510.3
2017-May-22 19:00N 37°56' E 023°38'0 0.5
2017-May-22 18:28N 37°56' E 023°38'0 0.0
2017-May-22 17:58N 37°56' E 023°38'0 0.0
2017-May-22 17:28N 37°56' E 023°38'0 0.0
2017-May-22 16:58N 37°56' E 023°38'0 0.0
2017-May-22 16:28N 37°56' E 023°38'0 0.0
2017-May-22 15:58N 37°56' E 023°38'0 0.0
2017-May-22 15:28N 37°56' E 023°38'3 5.9
2017-May-22 15:00N 37°54' E 023°36'3151.6 130 / 21013.0 26.021.819.0
2017-May-22 14:58N 37°56' E 023°38'0 0.0
2017-May-22 13:58N 37°56' E 023°38'0 0.0
2017-May-22 13:28N 37°56' E 023°38'0 0.0
2017-May-22 12:58N 37°56' E 023°38'0 0.0
2017-May-22 12:28N 37°56' E 023°38'0 0.0
2017-May-22 11:58N 37°56' E 023°38'0 0.0
2017-May-22 11:28N 37°56' E 023°38'0 0.0
2017-May-22 10:58N 37°56' E 023°38'0 0.0
2017-May-22 10:30N 37°56' E 023°38'2 3.1
2017-May-22 10:00N 37°55' E 023°37'510.0
2017-May-22 09:30N 37°51' E 023°39'917.8
2017-May-22 09:00N 37°43' E 023°44'918.1
2017-May-22 08:31N 37°34' E 023°45'918.8
2017-May-22 08:00N 37°24' E 023°44'  
2017-May-20 00:15N 40°42' E 018°15'417.0
2017-May-20 00:01N 40°39' E 018°18'916.9
2017-May-19 23:30N 40°32' E 018°24'916.9
2017-May-19 22:57N 40°24' E 018°31'816.9
2017-May-19 22:29N 40°17' E 018°36'1217.0
2017-May-19 21:48N 40°07' E 018°45'517.2
2017-May-19 21:30N 40°03' E 018°48'817.3
2017-May-19 21:01N 39°55' E 018°53'1017.3
2017-May-19 20:27N 39°47' E 018°59'817.4
2017-May-19 20:01N 39°40' E 019°04'917.2
2017-May-19 19:29N 39°32' E 019°09'2615.5
2017-May-19 17:48N 39°09' E 019°26'414.8
2017-May-19 17:31N 39°06' E 019°29'814.8
2017-May-19 17:00N 38°59' E 019°33'  
Track history (hours):
 
Tides and Currents Weather Stations Pressure Air Temp Water Temp Dewpoint Dewpoint Depression Visibility Wind Speed Wind Dir Waves Ship Positions

Costa Neoclassica

Last reported at 2017-May-29 16:30 UTC. Time now 2017-May-29 16:56 UTC.
Position N 37°56' E 023°38'.

Length 220 m; draft 7.6 m.

Type: Passenger vessel. MMSI: 247819000.

Date/timePositionNaut miles runAvg speedWind from/ knotsBaromVisibWave heightAir tempDewpointWater temp
2017-May-29 16:30N 37°56' E 023°38'0 0.0
2017-May-29 16:00N 37°56' E 023°38'0 0.0
2017-May-29 15:30N 37°56' E 023°38'0 0.0
2017-May-29 15:00N 37°56' E 023°38'0 0.0
2017-May-29 14:30N 37°56' E 023°38'0 0.0
2017-May-29 13:30N 37°56' E 023°38'0 0.0
2017-May-29 13:00N 37°56' E 023°38'0 0.0
2017-May-29 12:30N 37°56' E 023°38'0 0.0
2017-May-29 12:00N 37°56' E 023°38'0 0.0
2017-May-29 11:30N 37°56' E 023°38'0 0.0
2017-May-29 11:00N 37°56' E 023°38'0 0.1
2017-May-29 10:30N 37°56' E 023°38'2 3.9
2017-May-29 10:00N 37°55' E 023°36'714.5
2017-May-29 09:31N 37°48' E 023°41'918.7
2017-May-29 09:01N 37°40' E 023°46'918.1
2017-May-29 08:31N 37°31' E 023°46'387 9.3
2017-May-27 15:05N 41°08' E 016°52'47 3.3
2017-May-27 01:00N 40°48' E 017°48'2643.3 220 / 211012.0 19.017.519.0
2017-May-27 00:24N 40°38' E 018°19'376 7.6
2017-May-24 23:02N 37°05' E 024°57'015.3
2017-May-24 23:00N 37°06' E 024°58'715.0
2017-May-24 22:30N 37°13' E 025°01'915.1
2017-May-24 21:56N 37°20' E 025°06'614.8
2017-May-24 21:30N 37°26' E 025°09'713.9
2017-May-24 21:01N 37°28' E 025°17'2 2.6
2017-May-24 20:24N 37°28' E 025°19'0 0.0
2017-May-24 20:00N 37°28' E 025°19'0 0.0
2017-May-24 19:24N 37°28' E 025°19'0 0.0
2017-May-24 19:00N 37°28' E 025°19'0 0.0
2017-May-24 18:30N 37°28' E 025°19'0 0.0
2017-May-24 18:00N 37°28' E 025°19'0 0.0
2017-May-24 17:30N 37°28' E 025°19'0 0.0
2017-May-24 17:00N 37°28' E 025°19'0 0.0
2017-May-24 16:30N 37°28' E 025°19'0 0.0
2017-May-24 16:00N 37°28' E 025°19'0 0.0
2017-May-24 15:30N 37°28' E 025°19'0 0.0
2017-May-24 15:00N 37°28' E 025°19'0 0.0
2017-May-24 14:30N 37°28' E 025°19'0 0.0
2017-May-24 13:30N 37°28' E 025°19'0 0.0
2017-May-24 13:00N 37°28' E 025°19'0 0.0
2017-May-24 12:30N 37°28' E 025°19'0 0.0
2017-May-24 12:00N 37°28' E 025°19'0 0.0
2017-May-24 11:30N 37°28' E 025°19'0 0.0
2017-May-24 11:00N 37°28' E 025°19'0 0.0
2017-May-24 10:30N 37°28' E 025°19'0 0.0
2017-May-24 10:00N 37°28' E 025°19'0 0.0
2017-May-24 09:30N 37°28' E 025°19'0 0.0
2017-May-24 09:00N 37°28' E 025°19'0 0.0
2017-May-24 08:27N 37°28' E 025°19'0 0.0
2017-May-24 08:00N 37°28' E 025°19'0 0.0
2017-May-24 07:30N 37°28' E 025°19'0 0.0
2017-May-24 07:00N 37°28' E 025°19'0 0.0
2017-May-24 06:30N 37°28' E 025°19'0 0.0
2017-May-24 06:00N 37°28' E 025°19'0 0.0
2017-May-24 05:30N 37°28' E 025°19'0 0.0
2017-May-24 05:00N 37°28' E 025°19'0 0.0
2017-May-24 04:30N 37°28' E 025°19'0 0.0
2017-May-24 04:00N 37°28' E 025°19'0 0.0
2017-May-24 03:30N 37°28' E 025°19'0 0.0
2017-May-24 03:00N 37°28' E 025°19'0 0.0
2017-May-24 02:30N 37°28' E 025°19'0 0.0
2017-May-24 02:00N 37°28' E 025°19'0 0.0
2017-May-24 01:30N 37°28' E 025°19'0 0.0
2017-May-24 01:00N 37°28' E 025°19'0 0.0
2017-May-24 00:30N 37°28' E 025°19'0 0.0
2017-May-24 00:00N 37°28' E 025°19'0 0.0
2017-May-23 23:30N 37°28' E 025°19'0 0.0
2017-May-23 23:00N 37°28' E 025°19'0 0.0
2017-May-23 22:27N 37°28' E 025°19'0 0.0
2017-May-23 22:00N 37°28' E 025°19'0 0.0
2017-May-23 21:30N 37°28' E 025°19'0 0.0
2017-May-23 21:00N 37°28' E 025°19'0 0.0
2017-May-23 20:30N 37°28' E 025°19'0 0.0
2017-May-23 20:00N 37°28' E 025°19'1 1.1
2017-May-23 19:30N 37°28' E 025°19'0 0.4
2017-May-23 18:46N 37°27' E 025°19'0 0.1
2017-May-23 18:22N 37°27' E 025°19'0 0.1
2017-May-23 17:52N 37°27' E 025°19'0 0.0
2017-May-23 17:19N 37°27' E 025°19'0 0.0
2017-May-23 16:55N 37°27' E 025°19'0 0.0
2017-May-23 16:25N 37°27' E 025°19'0 0.1
2017-May-23 15:58N 37°27' E 025°19'0 0.0
2017-May-23 15:16N 37°27' E 025°19'0 0.1
2017-May-23 14:55N 37°27' E 025°19'0 0.0
2017-May-23 14:25N 37°27' E 025°19'0 0.0
2017-May-23 13:19N 37°27' E 025°19'310.4
2017-May-23 13:00N 37°24' E 025°18'340.4 360 / 141017.027.0 22.017.519.0
2017-May-23 12:55N 37°27' E 025°19'0 0.1
2017-May-23 12:28N 37°27' E 025°19'0 0.0
2017-May-23 11:58N 37°27' E 025°19'0 0.1
2017-May-23 11:31N 37°27' E 025°19'0 0.0
2017-May-23 10:58N 37°27' E 025°19'0 0.1
2017-May-23 10:31N 37°27' E 025°19'0 0.0
2017-May-23 09:58N 37°27' E 025°19'0 0.0
2017-May-23 09:28N 37°27' E 025°19'0 0.0
2017-May-23 08:55N 37°27' E 025°19'0 0.1
2017-May-23 08:28N 37°27' E 025°19'0 0.0
2017-May-23 07:58N 37°27' E 025°19'0 0.0
2017-May-23 07:25N 37°27' E 025°19'0 0.0
2017-May-23 06:49N 37°27' E 025°19'0 0.0
2017-May-23 06:28N 37°27' E 025°19'0 0.0
2017-May-23 05:55N 37°27' E 025°19'0 0.0
2017-May-23 05:31N 37°27' E 025°19'0 0.0
2017-May-23 05:00N 37°27' E 025°19'0 0.1
2017-May-23 04:30N 37°27' E 025°19'0 0.3
2017-May-23 04:00N 37°27' E 025°19'4 7.7
2017-May-23 03:30N 37°27' E 025°14'5 9.0
2017-May-23 03:00N 37°25' E 025°09'713.0
2017-May-23 02:30N 37°20' E 025°04'714.2
2017-May-23 02:01N 37°16' E 024°57'6012.0
2017-May-22 21:01N 37°30' E 023°44'115.3
2017-May-22 20:56N 37°31' E 023°43'715.1
2017-May-22 20:31N 37°38' E 023°43'714.7
2017-May-22 20:01N 37°44' E 023°39'714.4
2017-May-22 19:31N 37°51' E 023°37'510.3
2017-May-22 19:00N 37°56' E 023°38'0 0.5
2017-May-22 18:28N 37°56' E 023°38'0 0.0
2017-May-22 17:58N 37°56' E 023°38'0 0.0
2017-May-22 17:28N 37°56' E 023°38'0 0.0
2017-May-22 16:58N 37°56' E 023°38'0 0.0
2017-May-22 16:28N 37°56' E 023°38'0 0.0
2017-May-22 15:58N 37°56' E 023°38'0 0.0
2017-May-22 15:28N 37°56' E 023°38'3 5.9
2017-May-22 15:00N 37°54' E 023°36'3151.6 130 / 21013.0 26.021.819.0
2017-May-22 14:58N 37°56' E 023°38'0 0.0
2017-May-22 13:58N 37°56' E 023°38'0 0.0
2017-May-22 13:28N 37°56' E 023°38'0 0.0
2017-May-22 12:58N 37°56' E 023°38'0 0.0
2017-May-22 12:28N 37°56' E 023°38'0 0.0
2017-May-22 11:58N 37°56' E 023°38'0 0.0
2017-May-22 11:28N 37°56' E 023°38'0 0.0
2017-May-22 10:58N 37°56' E 023°38'0 0.0
2017-May-22 10:30N 37°56' E 023°38'2 3.1
2017-May-22 10:00N 37°55' E 023°37'510.0
2017-May-22 09:30N 37°51' E 023°39'917.8
2017-May-22 09:00N 37°43' E 023°44'918.1
2017-May-22 08:31N 37°34' E 023°45'918.8
2017-May-22 08:00N 37°24' E 023°44'  
2017-May-20 00:15N 40°42' E 018°15'417.0
2017-May-20 00:01N 40°39' E 018°18'916.9
2017-May-19 23:30N 40°32' E 018°24'916.9
2017-May-19 22:57N 40°24' E 018°31'816.9
2017-May-19 22:29N 40°17' E 018°36'1217.0
2017-May-19 21:48N 40°07' E 018°45'517.2
2017-May-19 21:30N 40°03' E 018°48'817.3
2017-May-19 21:01N 39°55' E 018°53'1017.3
2017-May-19 20:27N 39°47' E 018°59'817.4
2017-May-19 20:01N 39°40' E 019°04'917.2
2017-May-19 19:29N 39°32' E 019°09'2615.5
2017-May-19 17:48N 39°09' E 019°26'414.8
2017-May-19 17:31N 39°06' E 019°29'814.8
2017-May-19 17:00N 38°59' E 019°33'  

Dump ship's entire track history